createdAt,value
2019-04-21T00:01:55.971Z,21.63
2019-04-21T00:04:40.780Z,22.53
2019-04-21T00:07:14.380Z,22.60
2019-04-21T00:09:45.601Z,22.50
2019-04-21T00:12:15.470Z,23.40
2019-04-21T00:14:34.980Z,23.40
2019-04-21T00:16:58.041Z,22.17
2019-04-21T00:19:36.798Z,26.83
2019-04-21T00:22:14.943Z,20.97
2019-04-21T00:24:46.149Z,18.83
2019-04-21T00:27:21.654Z,20.80
2019-04-21T00:29:49.699Z,17.60
2019-04-21T00:32:15.041Z,16.93
2019-04-21T00:34:30.191Z,17.77
2019-04-21T00:37:11.024Z,19.97
2019-04-21T00:39:58.256Z,16.33
2019-04-21T00:42:14.164Z,18.63
2019-04-21T00:44:36.720Z,21.23
2019-04-21T00:47:15.665Z,22.83
2019-04-21T00:49:43.176Z,24.37
2019-04-21T00:52:42.630Z,20.70
2019-04-21T00:55:12.259Z,19.40
2019-04-21T00:57:36.750Z,18.47
2019-04-21T01:00:00.930Z,20.60
2019-04-21T01:02:36.442Z,19.07
2019-04-21T01:05:00.062Z,17.30
2019-04-21T01:07:26.579Z,22.03
2019-04-21T01:09:49.052Z,21.53
2019-04-21T01:12:26.953Z,17.87
2019-04-21T01:14:56.550Z,22.33
2019-04-21T01:17:23.205Z,18.97
2019-04-21T01:19:46.861Z,16.83
2019-04-21T01:22:01.348Z,24.60
2019-04-21T01:24:34.704Z,21.33
2019-04-21T01:27:10.704Z,17.63
2019-04-21T01:29:47.625Z,17.77
2019-04-21T01:32:23.702Z,18.67
2019-04-21T01:34:45.389Z,14.57
2019-04-21T01:37:12.797Z,22.30
2019-04-21T01:39:50.429Z,14.07
2019-04-21T01:42:18.861Z,15.67
2019-04-21T01:44:46.197Z,14.47
2019-04-21T01:47:13.167Z,16.67
2019-04-21T01:49:34.525Z,15.13
2019-04-21T01:55:00.412Z,13.40
2019-04-21T01:57:52.646Z,12.63
2019-04-21T02:00:23.459Z,12.83
2019-04-21T02:03:09.899Z,14.13
2019-04-21T02:05:34.574Z,12.87
2019-04-21T02:07:54.676Z,11.83
2019-04-21T02:10:34.302Z,13.80
2019-04-21T02:12:56.862Z,13.77
2019-04-21T02:15:30.526Z,13.47
2019-04-21T02:17:54.073Z,13.40
2019-04-21T02:20:17.979Z,13.37
2019-04-21T02:23:10.057Z,13.97
2019-04-21T02:25:25.841Z,13.83
2019-04-21T02:27:57.716Z,16.43
2019-04-21T02:30:36.806Z,15.80
2019-04-21T02:33:13.719Z,16.27
2019-04-21T02:35:39.982Z,11.73
2019-04-21T02:38:12.167Z,15.20
2019-04-21T02:45:29.745Z,18.27
2019-04-21T02:48:04.100Z,13.23
2019-04-21T02:50:31.714Z,14.17
2019-04-21T02:55:31.276Z,14.00
2019-04-21T02:58:06.213Z,12.63
2019-04-21T03:00:31.552Z,13.73
2019-04-21T03:03:19.649Z,14.80
2019-04-21T03:08:43.049Z,13.50
2019-04-21T03:16:23.558Z,14.90
2019-04-21T03:18:40.469Z,14.03
2019-04-21T03:21:10.843Z,13.50
2019-04-21T03:26:10.310Z,13.97
2019-04-21T03:28:37.401Z,15.97
2019-04-21T03:40:57.278Z,14.43
2019-04-21T03:43:31.699Z,12.60
2019-04-21T03:48:38.538Z,12.97
2019-04-21T03:50:59.368Z,14.60
2019-04-21T03:53:34.046Z,13.83
2019-04-21T03:58:37.446Z,12.20
2019-04-21T04:04:15.059Z,15.77
2019-04-21T04:06:43.188Z,14.67
2019-04-21T04:11:45.741Z,11.37
2019-04-21T04:16:50.166Z,12.67
2019-04-21T04:19:09.073Z,11.40
2019-04-21T04:24:13.002Z,12.97
2019-04-21T04:26:39.572Z,12.40
2019-04-21T04:39:43.026Z,11.20
2019-04-21T04:42:26.688Z,12.10
2019-04-21T04:44:54.253Z,11.60
2019-04-21T04:47:16.767Z,11.37
2019-04-21T04:49:47.968Z,11.50
2019-04-21T04:54:46.936Z,12.80
2019-04-21T04:57:16.391Z,12.23
2019-04-21T04:59:42.512Z,12.53
2019-04-21T05:07:07.160Z,11.20
2019-04-21T05:09:39.294Z,13.60
2019-04-21T05:12:15.808Z,13.33
2019-04-21T05:14:41.106Z,12.30
2019-04-21T05:17:03.915Z,12.07
2019-04-21T05:19:39.010Z,15.37
2019-04-21T05:22:05.730Z,17.00
2019-04-21T05:24:24.095Z,13.17
2019-04-21T05:26:55.426Z,15.10
2019-04-21T05:29:55.690Z,12.67
2019-04-21T05:32:26.468Z,13.47
2019-04-21T05:35:06.072Z,12.80
2019-04-21T05:37:47.655Z,16.43
2019-04-21T05:40:21.043Z,10.40
2019-04-21T05:42:51.046Z,17.10
2019-04-21T05:45:29.790Z,12.40
2019-04-21T05:48:24.286Z,12.20
2019-04-21T05:50:38.021Z,10.50
2019-04-21T05:53:18.977Z,12.80
2019-04-21T05:55:43.502Z,15.17
2019-04-21T05:58:08.641Z,13.30
2019-04-21T06:01:06.371Z,13.97
2019-04-21T06:03:23.134Z,14.20
2019-04-21T06:06:00.321Z,11.17
2019-04-21T06:08:18.761Z,13.50
2019-04-21T06:13:26.585Z,12.63
2019-04-21T06:18:21.843Z,10.93
2019-04-21T06:20:48.773Z,13.37
2019-04-21T06:23:18.113Z,13.87
2019-04-21T06:25:55.216Z,11.63
2019-04-21T06:28:19.193Z,12.73
2019-04-21T06:30:57.986Z,13.63
2019-04-21T06:33:15.389Z,11.57
2019-04-21T06:36:23.568Z,13.17
2019-04-21T06:44:01.350Z,11.90
2019-04-21T06:46:30.824Z,12.63
2019-04-21T06:48:55.509Z,10.73
2019-04-21T06:51:24.085Z,11.47
2019-04-21T06:53:59.584Z,11.60
2019-04-21T06:56:25.237Z,11.60
2019-04-21T06:58:53.467Z,10.80
2019-04-21T07:01:24.083Z,11.50
2019-04-21T07:04:03.597Z,11.33
2019-04-21T07:06:24.579Z,12.50
2019-04-21T07:09:10.153Z,9.97
2019-04-21T07:11:14.776Z,11.37
2019-04-21T07:13:50.050Z,11.90
2019-04-21T07:16:18.727Z,11.33
2019-04-21T07:18:51.354Z,12.20
2019-04-21T07:21:15.836Z,12.93
2019-04-21T07:23:47.262Z,10.73
2019-04-21T07:26:10.436Z,9.53
2019-04-21T07:28:47.966Z,10.20
2019-04-21T07:31:17.857Z,10.00
2019-04-21T07:33:54.129Z,11.67
2019-04-21T07:36:15.976Z,9.03
2019-04-21T07:38:41.156Z,10.37
2019-04-21T07:41:02.593Z,11.73
2019-04-21T07:43:34.365Z,10.20
2019-04-21T07:46:02.713Z,11.40
2019-04-21T07:48:43.175Z,10.90
2019-04-21T07:51:33.873Z,10.63
2019-04-21T07:54:06.299Z,9.43
2019-04-21T07:56:12.135Z,11.10
2019-04-21T07:58:58.882Z,9.50
2019-04-21T08:01:30.793Z,8.27
2019-04-21T08:03:58.150Z,10.03
2019-04-21T08:06:27.036Z,8.83
2019-04-21T08:08:52.823Z,10.10
2019-04-21T08:11:23.566Z,10.33
2019-04-21T08:16:28.465Z,10.37
2019-04-21T08:18:55.766Z,11.17
2019-04-21T08:21:20.735Z,11.93
2019-04-21T08:23:47.959Z,13.07
2019-04-21T08:26:26.148Z,11.10
2019-04-21T08:28:56.377Z,10.20
2019-04-21T08:31:27.994Z,10.33
2019-04-21T08:33:56.442Z,10.47
2019-04-21T08:36:24.558Z,11.03
2019-04-21T08:38:48.179Z,10.87
2019-04-21T08:41:18.453Z,12.20
2019-04-21T08:43:51.346Z,11.27
2019-04-21T08:46:19.495Z,13.40
2019-04-21T08:48:53.946Z,10.17
2019-04-21T08:51:27.521Z,12.67
2019-04-21T08:53:47.559Z,11.60
2019-04-21T08:56:21.511Z,10.00
2019-04-21T08:59:19.271Z,9.80
2019-04-21T09:02:07.640Z,9.33
2019-04-21T09:04:33.693Z,9.57
2019-04-21T09:07:28.747Z,9.27
2019-04-21T09:09:42.682Z,9.57
2019-04-21T09:12:04.405Z,11.03
2019-04-21T09:14:37.023Z,10.50
2019-04-21T09:17:03.314Z,8.37
2019-04-21T09:19:44.281Z,8.60
2019-04-21T09:22:01.921Z,8.07
2019-04-21T09:24:33.401Z,10.37
2019-04-21T09:27:02.095Z,10.20
2019-04-21T09:29:24.434Z,9.13
2019-04-21T09:31:46.021Z,7.10
2019-04-21T09:34:20.638Z,9.60
2019-04-21T09:36:46.761Z,9.67
2019-04-21T09:39:17.962Z,7.63
2019-04-21T09:41:42.662Z,7.77
2019-04-21T09:44:18.495Z,7.63
2019-04-21T09:46:45.336Z,8.33
2019-04-21T09:49:13.533Z,7.33
2019-04-21T09:51:39.585Z,7.43
2019-04-21T09:54:13.603Z,6.90
2019-04-21T09:56:45.442Z,7.13
2019-04-21T09:59:12.211Z,6.20
2019-04-21T10:01:49.123Z,9.00
2019-04-21T10:04:05.838Z,7.37
2019-04-21T10:06:33.432Z,7.93
2019-04-21T10:09:04.223Z,6.50
2019-04-21T10:11:31.109Z,8.23
2019-04-21T10:13:58.916Z,7.87
2019-04-21T10:16:36.443Z,7.13
2019-04-21T10:19:04.651Z,7.20
2019-04-21T10:21:33.839Z,6.40
2019-04-21T10:24:02.052Z,7.50
2019-04-21T10:26:30.543Z,7.80
2019-04-21T10:29:05.722Z,6.60
2019-04-21T10:31:28.922Z,6.97
2019-04-21T10:33:56.514Z,5.67
2019-04-21T10:36:24.863Z,7.53
2019-04-21T10:38:54.001Z,6.87
2019-04-21T10:41:21.797Z,5.83
2019-04-21T10:43:53.376Z,5.53
2019-04-21T10:46:22.197Z,5.90
2019-04-21T10:48:50.638Z,6.00
2019-04-21T10:51:19.041Z,6.43
2019-04-21T10:53:52.344Z,7.27
2019-04-21T10:56:25.025Z,5.77
2019-04-21T10:58:49.913Z,6.13
2019-04-21T11:01:20.913Z,4.43
2019-04-21T11:04:19.530Z,5.17
2019-04-21T11:06:40.668Z,6.37
2019-04-21T11:09:10.504Z,6.27
2019-04-21T11:11:39.621Z,7.23
2019-04-21T11:14:08.623Z,5.47
2019-04-21T11:16:37.235Z,6.03
2019-04-21T11:19:06.206Z,7.53
2019-04-21T11:21:34.620Z,5.20
2019-04-21T11:24:03.794Z,5.73
2019-04-21T11:26:31.836Z,6.70
2019-04-21T11:29:00.786Z,6.23
2019-04-21T11:31:29.223Z,5.47
2019-04-21T11:33:57.585Z,6.13
2019-04-21T13:58:18.028Z,4.87
2019-04-21T22:30:58.976Z,10.23
2019-04-21T22:33:31.239Z,5.60
2019-04-21T22:36:05.435Z,21.70
2019-04-21T22:38:40.891Z,7.90
2019-04-21T22:41:10.112Z,7.00
2019-04-21T22:43:32.916Z,7.63
2019-04-21T22:45:55.722Z,7.47
2019-04-21T22:48:28.182Z,6.93
2019-04-21T22:50:52.990Z,8.17
2019-04-21T22:53:21.420Z,7.13
2019-04-21T22:55:58.730Z,7.97
2019-04-21T22:58:25.761Z,7.10
2019-04-21T23:00:54.663Z,6.13
2019-04-21T23:03:21.338Z,7.90
2019-04-21T23:05:50.035Z,8.60
2019-04-21T23:08:17.213Z,8.00
2019-04-21T23:10:49.668Z,7.10
2019-04-21T23:13:18.278Z,11.43
2019-04-21T23:15:51.202Z,8.13
2019-04-21T23:18:30.491Z,7.63
2019-04-21T23:21:03.487Z,6.73
2019-04-21T23:23:37.090Z,8.17
2019-04-21T23:25:55.997Z,7.17
2019-04-21T23:28:34.571Z,6.80
2019-04-21T23:31:01.090Z,7.57
2019-04-21T23:33:15.509Z,7.63
2019-04-21T23:35:43.705Z,8.30
2019-04-21T23:38:12.074Z,6.50
2019-04-21T23:40:46.203Z,6.90
2019-04-21T23:43:14.862Z,8.43
2019-04-21T23:45:41.318Z,6.37
2019-04-21T23:48:18.579Z,6.97
2019-04-21T23:50:47.040Z,7.87
2019-04-21T23:53:05.767Z,7.33
2019-04-21T23:55:33.288Z,7.23
2019-04-21T23:58:07.145Z,7.57
